Time;durP1;ratioP1;P1;durP2;ratioP2;P2;SDS_P1;SDS_P2;PMS_P1;PMS_P2;Temp;Humidity;BMP_temperature;BMP_pressure;BME280_temperature;BME280_humidity;BME280_pressure;Samples;Min_cycle;Max_cycle;Signal;HPM_P1;HPM_P2
2022/01/10 00:01:11;;;;;;;42.23;18.90;;;0.00;99.90;;;;;;4158462;28;20345;-55
2022/01/10 00:03:13;;;;;;;43.10;17.83;;;-0.10;99.90;;;;;;4158108;28;20321;-51
2022/01/10 00:05:14;;;;;;;39.30;17.53;;;-0.10;99.90;;;;;;4157962;28;20263;-56
2022/01/10 00:07:16;;;;;;;36.83;15.47;;;-0.10;99.90;;;;;;4159051;28;20254;-57
2022/01/10 00:09:17;;;;;;;34.53;16.13;;;-0.10;99.90;;;;;;4158020;28;20816;-57
2022/01/10 00:11:18;;;;;;;30.40;14.77;;;-0.20;99.90;;;;;;4158900;28;20324;-55
2022/01/10 00:13:19;;;;;;;33.20;15.53;;;-0.10;99.90;;;;;;4157891;28;20267;-57
2022/01/10 00:15:20;;;;;;;37.87;17.40;;;-0.10;99.90;;;;;;4158482;28;20274;-58
2022/01/10 00:17:21;;;;;;;28.43;14.33;;;-0.10;99.90;;;;;;4157655;28;20271;-58
2022/01/10 00:19:23;;;;;;;29.43;12.13;;;-0.10;99.90;;;;;;4159053;28;20328;-62
2022/01/10 00:21:25;;;;;;;29.37;12.93;;;-0.10;99.90;;;;;;4157503;28;20262;-57
2022/01/10 00:23:26;;;;;;;36.67;15.37;;;-0.10;99.90;;;;;;4158796;28;20325;-58
2022/01/10 00:25:27;;;;;;;32.07;15.07;;;-0.10;99.90;;;;;;4157460;28;20274;-58
2022/01/10 00:27:28;;;;;;;29.73;13.33;;;-0.10;99.90;;;;;;4158527;28;20754;-57
2022/01/10 00:29:30;;;;;;;30.70;13.97;;;-0.10;99.90;;;;;;4157839;28;20317;-57
2022/01/10 00:31:31;;;;;;;34.63;15.60;;;-0.10;99.90;;;;;;4157908;28;20263;-55
2022/01/10 00:33:32;;;;;;;33.03;14.57;;;-0.10;99.90;;;;;;4157999;28;20279;-59
2022/01/10 00:35:33;;;;;;;33.50;15.23;;;-0.10;99.90;;;;;;4157530;28;20685;-57
2022/01/10 00:37:35;;;;;;;28.40;14.23;;;-0.10;99.90;;;;;;4158427;28;20329;-57
2022/01/10 00:39:36;;;;;;;28.90;13.40;;;-0.20;99.90;;;;;;4156823;28;20274;-55
2022/01/10 00:41:37;;;;;;;32.37;14.30;;;-0.20;99.90;;;;;;4159072;28;20287;-58
2022/01/10 00:43:45;;;;;;;28.23;12.23;;;-0.20;99.90;;;;;;4157004;28;20409;-57
2022/01/10 00:45:46;;;;;;;35.00;13.53;;;-0.20;99.90;;;;;;4158532;28;20321;-57
2022/01/10 00:47:47;;;;;;;33.77;13.07;;;-0.20;99.90;;;;;;4157344;28;20328;-54
2022/01/10 00:49:48;;;;;;;29.43;12.37;;;-0.20;99.90;;;;;;4158637;28;20317;-57
2022/01/10 00:51:49;;;;;;;31.33;12.67;;;-0.20;99.90;;;;;;4157482;28;20336;-56
2022/01/10 00:53:52;;;;;;;31.17;13.13;;;-0.20;99.90;;;;;;4158284;28;20324;-57
2022/01/10 00:55:53;;;;;;;32.70;13.97;;;-0.20;99.90;;;;;;4157296;28;20300;-53
2022/01/10 00:57:55;;;;;;;30.43;13.73;;;-0.20;99.90;;;;;;4158275;28;20262;-54
2022/01/10 00:59:56;;;;;;;34.27;14.07;;;-0.20;99.90;;;;;;4157388;28;20320;-56
2022/01/10 01:01:57;;;;;;;29.60;13.47;;;-0.20;99.90;;;;;;4157687;28;20274;-59
2022/01/10 01:03:59;;;;;;;31.50;14.97;;;-0.20;99.90;;;;;;4157185;28;20349;-57
2022/01/10 01:06:00;;;;;;;35.27;14.33;;;-0.10;99.90;;;;;;4157106;28;20271;-58
2022/01/10 01:08:05;;;;;;;32.33;13.20;;;-0.20;99.90;;;;;;4158140;28;20328;-54
2022/01/10 01:12:46;;;;;;;32.73;14.53;;;-0.10;99.90;;;;;;4158060;28;20320;-55
2022/01/10 01:16:58;;;;;;;31.37;14.93;;;-0.10;99.90;;;;;;4157851;28;21245;-56
2022/01/10 01:25:56;;;;;;;30.37;14.00;;;-0.20;99.90;;;;;;4157314;28;20333;-56
2022/01/10 01:27:58;;;;;;;29.90;13.23;;;-0.20;99.90;;;;;;4157298;28;20278;-61
2022/01/10 01:29:59;;;;;;;26.87;11.83;;;-0.20;99.90;;;;;;4157394;28;20364;-60
2022/01/10 01:32:00;;;;;;;35.17;14.00;;;-0.20;99.90;;;;;;4157047;28;20653;-57
2022/01/10 01:34:02;;;;;;;29.73;13.57;;;-0.20;99.90;;;;;;4157584;28;20329;-56
2022/01/10 01:36:03;;;;;;;28.80;14.23;;;-0.20;99.90;;;;;;4156417;28;20298;-58
2022/01/10 01:38:05;;;;;;;32.73;15.53;;;-0.20;99.90;;;;;;4157708;28;20267;-56
2022/01/10 01:40:09;;;;;;;38.17;16.13;;;-0.20;99.90;;;;;;4156101;28;20337;-56
2022/01/10 01:42:31;;;;;;;36.30;16.30;;;-0.20;99.90;;;;;;4157087;28;20762;-55
2022/01/10 01:44:33;;;;;;;38.37;16.10;;;-0.20;99.90;;;;;;4156690;28;20306;-56
2022/01/10 01:46:35;;;;;;;43.37;18.50;;;-0.30;99.90;;;;;;4157707;28;21150;-57
2022/01/10 01:48:36;;;;;;;42.73;17.70;;;-0.20;99.90;;;;;;4156568;28;20259;-60
2022/01/10 01:50:38;;;;;;;40.17;16.10;;;-0.30;99.90;;;;;;4158182;28;20267;-54
2022/01/10 01:52:39;;;;;;;35.87;14.20;;;-0.40;99.90;;;;;;4156601;28;20262;-58
2022/01/10 01:54:40;;;;;;;31.40;13.73;;;-0.40;99.90;;;;;;4157658;28;20337;-53
2022/01/10 01:56:41;;;;;;;34.07;14.70;;;-0.40;99.90;;;;;;4156105;28;20267;-52
2022/01/10 01:58:44;;;;;;;37.17;14.90;;;-0.40;99.90;;;;;;4157772;28;20308;-51
2022/01/10 02:00:45;;;;;;;34.07;14.50;;;-0.30;99.90;;;;;;4156545;28;20254;-57
2022/01/10 02:02:47;;;;;;;38.13;15.60;;;-0.40;99.90;;;;;;4157632;28;20673;-58
2022/01/10 02:04:48;;;;;;;31.23;14.70;;;-0.40;99.90;;;;;;4156822;28;20286;-58
2022/01/10 02:06:49;;;;;;;45.87;17.60;;;-0.40;99.90;;;;;;4156894;28;20324;-57
2022/01/10 02:08:50;;;;;;;36.77;15.57;;;-0.50;99.90;;;;;;4157351;28;20681;-56
2022/01/10 02:10:51;;;;;;;37.23;15.60;;;-0.40;99.90;;;;;;4156727;28;20316;-55
2022/01/10 02:12:52;;;;;;;39.13;17.40;;;-0.40;99.90;;;;;;4157794;28;20313;-58
2022/01/10 02:14:53;;;;;;;39.13;16.97;;;-0.50;99.90;;;;;;4156097;28;20320;-50
2022/01/10 02:16:56;;;;;;;38.13;16.10;;;-0.40;99.90;;;;;;4157166;28;20267;-58
2022/01/10 02:18:57;;;;;;;38.03;16.37;;;-0.40;99.90;;;;;;4156488;28;20329;-57
2022/01/10 02:21:01;;;;;;;37.87;14.77;;;-0.40;99.90;;;;;;4157084;28;20270;-57
2022/01/10 02:23:03;;;;;;;30.33;12.77;;;-0.40;99.90;;;;;;4156005;28;20742;-57
2022/01/10 02:25:05;;;;;;;35.67;14.83;;;-0.40;99.90;;;;;;4157288;28;20303;-58
2022/01/10 02:27:06;;;;;;;39.23;17.43;;;-0.50;99.90;;;;;;4156176;28;20761;-63
2022/01/10 02:29:08;;;;;;;40.47;16.47;;;-0.50;99.90;;;;;;4157040;28;20279;-55
2022/01/10 02:31:09;;;;;;;40.47;16.50;;;-0.50;99.90;;;;;;4155443;28;20283;-58
2022/01/10 02:33:10;;;;;;;37.90;15.03;;;-0.60;99.90;;;;;;4157102;28;20666;-59
2022/01/10 02:35:24;;;;;;;37.20;16.17;;;-0.60;99.90;;;;;;4156311;28;20329;-59
2022/01/10 02:37:36;;;;;;;38.13;16.17;;;-0.60;99.90;;;;;;4156734;28;20762;-63
2022/01/10 02:39:37;;;;;;;33.07;13.03;;;-0.60;99.90;;;;;;4155927;28;20658;-56
2022/01/10 02:41:43;;;;;;;34.37;15.23;;;-0.60;99.90;;;;;;4157035;28;21276;-60
2022/01/10 02:43:44;;;;;;;39.23;16.70;;;-0.60;99.90;;;;;;4156356;28;20279;-59
2022/01/10 02:45:46;;;;;;;39.00;17.00;;;-0.60;99.90;;;;;;4156192;28;20307;-59
2022/01/10 02:47:48;;;;;;;40.50;16.47;;;-0.60;99.90;;;;;;4156622;28;20263;-56
2022/01/10 02:49:49;;;;;;;38.27;17.47;;;-0.60;99.90;;;;;;4155787;28;20267;-52
2022/01/10 02:51:52;;;;;;;32.80;14.63;;;-0.70;99.90;;;;;;4157405;28;20267;-57
2022/01/10 02:53:53;;;;;;;33.43;13.80;;;-0.70;99.90;;;;;;4156121;28;20348;-58
2022/01/10 02:55:54;;;;;;;34.37;14.93;;;-0.70;99.90;;;;;;4156864;28;20275;-53
2022/01/10 02:57:55;;;;;;;31.20;14.30;;;-0.70;99.90;;;;;;4155669;28;20446;-55
2022/01/10 02:59:57;;;;;;;36.37;14.90;;;-0.70;99.90;;;;;;4157892;28;20695;-59
2022/01/10 03:01:58;;;;;;;32.00;14.37;;;-0.70;99.90;;;;;;4158388;28;20302;-56
2022/01/10 03:04:00;;;;;;;39.33;14.20;;;-0.70;99.90;;;;;;4159991;28;20763;-59
2022/01/10 03:06:02;;;;;;;36.20;15.33;;;-0.70;99.90;;;;;;4158973;28;20746;-57
2022/01/10 03:08:03;;;;;;;34.90;14.63;;;-0.70;99.90;;;;;;4159566;28;20270;-58
2022/01/10 03:10:06;;;;;;;40.40;16.50;;;-0.70;99.90;;;;;;4159016;28;21184;-58
2022/01/10 03:12:09;;;;;;;39.10;15.77;;;-0.60;99.90;;;;;;4159935;28;20267;-58
2022/01/10 03:14:14;;;;;;;31.57;14.17;;;-0.60;99.90;;;;;;4158493;28;20685;-57
2022/01/10 03:16:15;;;;;;;34.60;14.30;;;-0.50;99.90;;;;;;4159121;28;20279;-58
2022/01/10 03:18:16;;;;;;;40.17;16.27;;;-0.50;99.90;;;;;;4159251;28;20305;-55
2022/01/10 03:20:18;;;;;;;38.17;16.90;;;-0.40;99.90;;;;;;4158862;28;20267;-55
2022/01/10 03:22:19;;;;;;;41.87;16.27;;;-0.50;99.90;;;;;;4158799;28;20262;-53
2022/01/10 03:24:20;;;;;;;36.83;15.27;;;-0.40;99.90;;;;;;4158668;28;20299;-52
2022/01/10 03:26:21;;;;;;;42.27;16.37;;;-0.40;99.90;;;;;;4159645;28;20738;-56
2022/01/10 03:28:22;;;;;;;39.40;17.00;;;-0.40;99.90;;;;;;4158723;28;20336;-53
2022/01/10 03:30:24;;;;;;;38.23;15.50;;;-0.40;99.90;;;;;;4159649;28;20270;-54
2022/01/10 03:32:25;;;;;;;40.13;16.43;;;-0.30;99.90;;;;;;4158002;28;20344;-54
2022/01/10 03:34:27;;;;;;;41.10;18.50;;;-0.30;99.90;;;;;;4159654;28;20325;-56
2022/01/10 03:36:28;;;;;;;41.53;16.97;;;-0.30;99.90;;;;;;4158105;28;20317;-58
2022/01/10 03:38:30;;;;;;;35.27;16.17;;;-0.30;99.90;;;;;;4159793;28;21282;-57
2022/01/10 03:40:31;;;;;;;28.77;14.00;;;-0.30;99.90;;;;;;4158044;28;20689;-57
2022/01/10 03:42:32;;;;;;;31.17;12.87;;;-0.30;99.90;;;;;;4159623;28;21065;-54
2022/01/10 03:44:33;;;;;;;32.97;12.63;;;-0.40;99.90;;;;;;4158199;28;20302;-56
2022/01/10 03:46:34;;;;;;;33.53;14.00;;;-0.30;99.90;;;;;;4159011;28;20329;-57
2022/01/10 03:48:36;;;;;;;31.93;13.17;;;-0.40;99.90;;;;;;4158163;28;20305;-57
2022/01/10 03:50:37;;;;;;;27.20;12.10;;;-0.40;99.90;;;;;;4158517;28;20259;-56
2022/01/10 03:52:38;;;;;;;35.43;14.53;;;-0.50;99.90;;;;;;4158674;28;20278;-57
2022/01/10 03:54:39;;;;;;;31.83;13.30;;;-0.40;99.90;;;;;;4157952;28;20271;-58
2022/01/10 03:56:40;;;;;;;30.80;13.30;;;-0.40;99.90;;;;;;4159498;28;20349;-55
2022/01/10 03:58:41;;;;;;;34.20;13.50;;;-0.40;99.90;;;;;;4158132;28;20322;-57
2022/01/10 04:00:43;;;;;;;30.93;13.30;;;-0.40;99.90;;;;;;4159277;28;20259;-57
2022/01/10 04:02:50;;;;;;;32.27;13.60;;;-0.40;99.90;;;;;;4158076;28;20267;-54
2022/01/10 04:04:52;;;;;;;33.13;14.87;;;-0.40;99.90;;;;;;4159287;28;20382;-54
2022/01/10 04:06:53;;;;;;;28.03;12.33;;;-0.40;99.90;;;;;;4157674;28;20262;-54
2022/01/10 04:08:54;;;;;;;30.17;13.53;;;-0.40;99.90;;;;;;4158828;28;20263;-50
2022/01/10 04:10:55;;;;;;;31.63;13.57;;;-0.40;99.90;;;;;;4156889;28;20352;-57
2022/01/10 04:12:57;;;;;;;27.60;12.43;;;-0.30;99.90;;;;;;4159196;28;20758;-55
2022/01/10 04:14:58;;;;;;;32.60;13.40;;;-0.30;99.90;;;;;;4157452;28;20282;-57
2022/01/10 04:16:59;;;;;;;25.03;11.30;;;-0.40;99.90;;;;;;4158893;28;20274;-58
2022/01/10 04:19:01;;;;;;;28.93;12.67;;;-0.40;99.90;;;;;;4157830;28;20274;-55
2022/01/10 04:21:02;;;;;;;25.23;11.43;;;-0.30;99.90;;;;;;4158272;28;20341;-56
2022/01/10 04:23:03;;;;;;;29.10;13.23;;;-0.40;99.90;;;;;;4158078;28;20766;-56
2022/01/10 04:25:05;;;;;;;32.70;13.63;;;-0.40;99.90;;;;;;4157649;28;20657;-57
2022/01/10 04:27:06;;;;;;;29.50;12.70;;;-0.40;99.90;;;;;;4158308;28;20309;-53
2022/01/10 04:29:07;;;;;;;32.03;13.73;;;-0.40;99.90;;;;;;4157518;28;20325;-55
2022/01/10 04:31:10;;;;;;;32.13;13.43;;;-0.40;99.90;;;;;;4158408;28;20329;-58
2022/01/10 04:33:17;;;;;;;31.97;14.67;;;-0.40;99.90;;;;;;4157163;28;20825;-56
2022/01/10 04:35:18;;;;;;;30.70;12.40;;;-0.40;99.90;;;;;;4158539;28;20275;-54
2022/01/10 04:37:19;;;;;;;28.40;12.17;;;-0.50;99.90;;;;;;4157205;28;20302;-57
2022/01/10 04:39:20;;;;;;;29.07;12.70;;;-0.40;99.90;;;;;;4158560;28;20267;-57
2022/01/10 04:41:22;;;;;;;29.13;12.47;;;-0.40;99.90;;;;;;4157001;28;20336;-59
2022/01/10 04:43:23;;;;;;;33.07;13.03;;;-0.40;99.90;;;;;;4159064;28;20344;-54
2022/01/10 04:45:24;;;;;;;26.00;11.47;;;-0.40;99.90;;;;;;4156946;28;20345;-61
2022/01/10 04:47:25;;;;;;;30.20;13.97;;;-0.30;99.90;;;;;;4158540;28;20338;-56
2022/01/10 04:49:26;;;;;;;31.00;13.23;;;-0.40;99.90;;;;;;4157172;28;20262;-57
2022/01/10 04:51:29;;;;;;;33.40;14.43;;;-0.40;99.90;;;;;;4157736;28;20271;-57
2022/01/10 04:53:30;;;;;;;31.23;14.40;;;-0.40;99.90;;;;;;4156214;28;20309;-53
2022/01/10 04:55:31;;;;;;;28.90;13.13;;;-0.40;99.90;;;;;;4156686;28;20948;-57
2022/01/10 04:57:32;;;;;;;31.97;13.40;;;-0.40;99.90;;;;;;4155959;28;20259;-59
2022/01/10 04:59:33;;;;;;;28.30;13.43;;;-0.40;99.90;;;;;;4156871;28;20258;-52
2022/01/10 05:01:34;;;;;;;28.33;12.73;;;-0.40;99.90;;;;;;4157957;28;20727;-63
2022/01/10 05:03:36;;;;;;;32.27;14.20;;;-0.40;99.90;;;;;;4156697;28;20336;-57
2022/01/10 05:05:37;;;;;;;30.07;14.03;;;-0.40;99.90;;;;;;4157674;28;20349;-53
2022/01/10 05:07:38;;;;;;;30.40;12.07;;;-0.40;99.90;;;;;;4156250;28;20274;-56
2022/01/10 05:09:40;;;;;;;29.80;12.97;;;-0.40;99.90;;;;;;4157833;28;20270;-58
2022/01/10 05:11:41;;;;;;;28.00;12.13;;;-0.40;99.90;;;;;;4155995;28;20321;-56
2022/01/10 05:13:42;;;;;;;30.37;12.50;;;-0.40;99.90;;;;;;4157947;28;20270;-57
2022/01/10 05:15:46;;;;;;;26.33;12.00;;;-0.40;99.90;;;;;;4156389;28;20321;-57
2022/01/10 05:17:47;;;;;;;30.50;13.27;;;-0.40;99.90;;;;;;4157333;28;20324;-58
2022/01/10 05:19:48;;;;;;;26.23;13.87;;;-0.40;99.90;;;;;;4155821;28;20413;-56
2022/01/10 05:21:50;;;;;;;27.87;12.67;;;-0.40;99.90;;;;;;4156505;28;20279;-57
2022/01/10 05:23:51;;;;;;;31.10;12.93;;;-0.40;99.90;;;;;;4156184;28;20329;-61
2022/01/10 05:25:52;;;;;;;29.87;13.33;;;-0.30;99.90;;;;;;4156761;28;20298;-57
2022/01/10 05:27:53;;;;;;;32.70;14.40;;;-0.30;99.90;;;;;;4156627;28;20337;-56
2022/01/10 05:29:54;;;;;;;36.17;15.43;;;-0.30;99.90;;;;;;4156443;28;20270;-58
2022/01/10 05:31:55;;;;;;;28.93;13.27;;;-0.30;99.90;;;;;;4156794;28;20297;-58
2022/01/10 05:33:57;;;;;;;33.13;13.47;;;-0.30;99.90;;;;;;4155595;28;20283;-59
2022/01/10 05:35:58;;;;;;;29.63;13.40;;;-0.30;99.90;;;;;;4157857;28;20324;-52
2022/01/10 05:37:59;;;;;;;28.10;12.47;;;-0.30;99.90;;;;;;4155805;28;20294;-57
2022/01/10 05:40:00;;;;;;;29.53;13.37;;;-0.30;99.90;;;;;;4156862;28;20666;-56
2022/01/10 05:42:01;;;;;;;38.67;16.20;;;-0.30;99.90;;;;;;4156298;28;20282;-55
2022/01/10 05:44:03;;;;;;;50.30;19.70;;;-0.30;99.90;;;;;;4157157;28;20627;-61
2022/01/10 05:46:08;;;;;;;56.30;23.50;;;-0.30;99.90;;;;;;4155700;28;20286;-56
2022/01/10 05:48:13;;;;;;;58.20;24.60;;;-0.20;99.90;;;;;;4156853;28;20796;-55
2022/01/10 05:50:19;;;;;;;90.37;37.17;;;-0.20;99.90;;;;;;4155779;28;20360;-50
2022/01/10 05:52:20;;;;;;;48.43;21.30;;;-0.20;99.90;;;;;;4157502;28;20769;-60
2022/01/10 05:54:21;;;;;;;66.37;29.13;;;-0.20;99.90;;;;;;4155618;28;20300;-58
2022/01/10 05:56:22;;;;;;;81.60;37.37;;;-0.20;99.90;;;;;;4156847;28;20333;-54
2022/01/10 05:58:23;;;;;;;69.97;32.07;;;-0.20;99.90;;;;;;4156379;28;20316;-56
2022/01/10 06:00:24;;;;;;;71.20;34.13;;;-0.20;99.90;;;;;;4155803;28;20271;-55
2022/01/10 06:02:25;;;;;;;51.30;25.20;;;-0.20;99.90;;;;;;4156101;28;20251;-57
2022/01/10 06:04:30;;;;;;;57.83;29.70;;;-0.20;99.90;;;;;;4155337;28;20263;-55
2022/01/10 06:06:31;;;;;;;32.93;15.63;;;-0.10;99.90;;;;;;4149775;28;20299;-54
2022/01/10 06:08:33;;;;;;;36.77;17.37;;;-0.10;99.90;;;;;;4155307;28;20356;-60
2022/01/10 06:10:35;;;;;;;29.53;13.10;;;-0.10;99.90;;;;;;4155003;28;20326;-54
2022/01/10 06:12:37;;;;;;;30.07;13.73;;;-0.10;99.90;;;;;;4155661;28;20278;-57
2022/01/10 06:14:38;;;;;;;31.77;15.17;;;-0.10;99.90;;;;;;4156840;28;20305;-52
2022/01/10 06:16:39;;;;;;;32.47;14.07;;;-0.10;99.90;;;;;;4155823;28;20725;-56
2022/01/10 06:18:40;;;;;;;31.53;13.87;;;-0.10;99.90;;;;;;4156791;28;20287;-56
2022/01/10 06:20:41;;;;;;;35.87;15.70;;;0.00;99.90;;;;;;4154941;28;20371;-51
2022/01/10 06:22:43;;;;;;;34.53;14.93;;;-0.10;99.90;;;;;;4156778;28;20663;-56
2022/01/10 06:24:44;;;;;;;30.83;15.23;;;0.00;99.90;;;;;;4155460;28;20763;-57
2022/01/10 06:26:46;;;;;;;37.13;18.40;;;0.00;99.90;;;;;;4150764;28;21685;-54
2022/01/10 06:28:47;;;;;;;35.50;18.00;;;0.00;99.90;;;;;;4155515;28;20719;-58
2022/01/10 06:30:48;;;;;;;36.23;16.13;;;0.00;99.90;;;;;;4155817;28;20370;-52
2022/01/10 06:32:49;;;;;;;29.27;14.27;;;0.10;99.90;;;;;;4156023;28;20739;-59
2022/01/10 06:34:52;;;;;;;31.40;14.07;;;0.10;99.90;;;;;;4156498;28;20258;-57
2022/01/10 06:36:53;;;;;;;35.63;16.23;;;0.10;99.90;;;;;;4160110;28;20313;-54
2022/01/10 06:38:55;;;;;;;35.77;17.80;;;0.10;99.90;;;;;;4158919;28;20772;-61
2022/01/10 06:40:56;;;;;;;33.93;16.67;;;0.20;99.90;;;;;;4159477;28;20342;-58
2022/01/10 06:42:57;;;;;;;35.80;15.90;;;0.20;99.90;;;;;;4159597;28;21250;-64
2022/01/10 06:44:58;;;;;;;49.60;24.47;;;0.20;99.90;;;;;;4159815;28;20340;-59
2022/01/10 06:47:00;;;;;;;44.40;19.87;;;0.20;99.90;;;;;;4158593;28;20278;-59
2022/01/10 06:49:01;;;;;;;40.33;18.60;;;0.20;99.90;;;;;;4159505;28;20282;-58
2022/01/10 06:51:02;;;;;;;43.73;17.60;;;0.20;99.90;;;;;;4158534;28;20278;-62
2022/01/10 06:53:03;;;;;;;39.03;18.00;;;0.20;99.90;;;;;;4159910;28;20329;-58
2022/01/10 06:55:05;;;;;;;43.17;19.30;;;0.20;99.90;;;;;;4158117;28;21163;-58
2022/01/10 06:57:06;;;;;;;42.23;19.00;;;0.20;99.90;;;;;;4158798;28;20279;-60
2022/01/10 06:59:08;;;;;;;46.90;18.67;;;0.20;99.90;;;;;;4158314;28;20792;-57
2022/01/10 07:01:09;;;;;;;43.10;18.57;;;0.30;99.90;;;;;;4159231;28;20336;-58
2022/01/10 07:03:10;;;;;;;43.03;18.30;;;0.30;99.90;;;;;;4158617;28;20977;-55
2022/01/10 07:05:12;;;;;;;44.57;18.20;;;0.40;99.90;;;;;;4158795;28;20923;-58
2022/01/10 07:07:13;;;;;;;42.00;18.63;;;0.40;99.90;;;;;;4159392;28;20271;-58
2022/01/10 07:09:14;;;;;;;42.60;19.47;;;0.30;99.90;;;;;;4158600;28;20286;-58
2022/01/10 07:11:15;;;;;;;46.70;21.43;;;0.40;99.90;;;;;;4159109;28;20279;-59
2022/01/10 07:13:16;;;;;;;40.20;19.13;;;0.50;99.90;;;;;;4159337;28;20321;-58
2022/01/10 07:15:20;;;;;;;39.37;16.93;;;0.50;99.90;;;;;;4159116;28;20278;-57
2022/01/10 07:17:21;;;;;;;39.60;17.90;;;0.50;99.90;;;;;;4157754;28;20271;-61
2022/01/10 07:19:23;;;;;;;39.97;17.47;;;0.50;99.90;;;;;;4159195;28;20278;-59
2022/01/10 07:21:24;;;;;;;37.60;17.47;;;0.50;99.90;;;;;;4158483;28;20321;-55
2022/01/10 07:23:25;;;;;;;44.53;18.97;;;0.60;99.90;;;;;;4159462;28;20279;-58
2022/01/10 07:25:26;;;;;;;43.87;19.67;;;0.50;99.90;;;;;;4157802;28;20291;-58
2022/01/10 07:27:27;;;;;;;42.27;20.33;;;0.50;99.90;;;;;;4158420;28;20275;-57
2022/01/10 07:29:28;;;;;;;39.57;18.67;;;0.40;99.90;;;;;;4158786;28;20267;-58
2022/01/10 07:31:30;;;;;;;41.20;18.33;;;0.40;99.90;;;;;;4158835;28;20739;-58
2022/01/10 07:33:31;;;;;;;45.93;19.97;;;0.40;99.90;;;;;;4158891;28;20275;-58
2022/01/10 07:35:32;;;;;;;43.43;18.87;;;0.40;99.90;;;;;;4158321;28;20279;-60
2022/01/10 07:37:34;;;;;;;38.27;18.00;;;0.60;99.90;;;;;;4157924;28;20271;-59
2022/01/10 07:39:35;;;;;;;40.67;18.17;;;0.60;99.90;;;;;;4158300;28;20723;-61
2022/01/10 07:41:36;;;;;;;37.77;18.57;;;0.60;99.90;;;;;;4158960;28;20782;-60
2022/01/10 07:43:37;;;;;;;30.13;15.63;;;0.60;99.90;;;;;;4158243;28;20266;-58
2022/01/10 07:45:38;;;;;;;39.90;18.70;;;0.60;99.90;;;;;;4159071;28;20941;-58
2022/01/10 07:47:40;;;;;;;36.10;18.27;;;0.60;99.90;;;;;;4157842;28;20430;-64
2022/01/10 07:49:41;;;;;;;32.03;16.10;;;0.70;99.90;;;;;;4159420;28;20258;-66
2022/01/10 07:51:42;;;;;;;37.77;16.57;;;0.70;99.90;;;;;;4157640;28;20948;-59
2022/01/10 07:53:43;;;;;;;35.13;15.83;;;0.70;99.90;;;;;;4159592;28;20263;-57
2022/01/10 07:55:44;;;;;;;36.50;17.33;;;0.80;99.90;;;;;;4157145;28;20328;-59
2022/01/10 07:57:46;;;;;;;37.20;17.27;;;0.90;99.90;;;;;;4158966;28;20271;-61
2022/01/10 07:59:47;;;;;;;35.93;16.67;;;0.90;99.90;;;;;;4157683;28;20299;-67
2022/01/10 08:01:49;;;;;;;38.23;16.73;;;0.90;99.90;;;;;;4158204;28;20744;-61
2022/01/10 08:03:52;;;;;;;38.33;16.63;;;1.00;99.90;;;;;;4157855;28;20255;-60
2022/01/10 08:05:53;;;;;;;33.20;15.20;;;1.00;99.90;;;;;;4157966;28;20765;-61
2022/01/10 08:07:55;;;;;;;33.87;16.50;;;1.10;99.90;;;;;;4158255;28;20405;-57
2022/01/10 08:09:56;;;;;;;33.57;15.80;;;1.10;99.90;;;;;;4157689;28;20777;-55
2022/01/10 08:11:59;;;;;;;34.10;15.70;;;1.20;99.90;;;;;;4158544;28;20267;-57
2022/01/10 08:14:02;;;;;;;36.30;15.73;;;1.30;99.90;;;;;;4158043;28;20266;-58
2022/01/10 08:16:04;;;;;;;32.30;14.30;;;1.30;99.90;;;;;;4158012;28;20816;-59
2022/01/10 08:18:07;;;;;;;28.77;13.63;;;1.30;99.90;;;;;;4157363;28;20274;-57
2022/01/10 08:20:09;;;;;;;31.53;15.43;;;1.30;99.90;;;;;;4158517;28;20755;-58
2022/01/10 08:22:10;;;;;;;31.40;14.67;;;1.20;99.90;;;;;;4156236;28;20674;-58
2022/01/10 08:24:11;;;;;;;41.37;17.73;;;1.20;99.90;;;;;;4158249;28;20340;-61
2022/01/10 08:26:12;;;;;;;42.10;18.60;;;1.10;99.90;;;;;;4156941;28;20337;-59
2022/01/10 08:28:14;;;;;;;40.63;17.00;;;1.10;99.90;;;;;;4158180;28;20278;-59
2022/01/10 08:30:15;;;;;;;32.90;15.80;;;1.00;99.90;;;;;;4156553;28;20332;-58
2022/01/10 08:32:17;;;;;;;34.87;16.77;;;1.00;99.90;;;;;;4157544;28;20274;-60
2022/01/10 08:34:18;;;;;;;37.60;16.60;;;1.00;99.90;;;;;;4157168;28;20259;-60
2022/01/10 08:36:19;;;;;;;29.03;14.03;;;0.80;99.90;;;;;;4157411;28;20762;-59
2022/01/10 08:38:20;;;;;;;31.63;14.97;;;0.80;99.90;;;;;;4157394;28;20656;-59
2022/01/10 08:40:21;;;;;;;33.00;15.77;;;0.70;99.90;;;;;;4157075;28;20778;-59
2022/01/10 08:42:23;;;;;;;34.10;14.33;;;0.70;99.90;;;;;;4157789;28;20324;-60
2022/01/10 08:44:25;;;;;;;33.70;14.73;;;0.60;99.90;;;;;;4156804;28;20320;-59
2022/01/10 08:46:26;;;;;;;36.33;15.93;;;0.60;99.90;;;;;;4157741;28;20299;-59
2022/01/10 08:48:27;;;;;;;39.80;17.50;;;0.50;99.90;;;;;;4156354;28;20677;-57
2022/01/10 08:50:29;;;;;;;38.57;17.13;;;0.50;99.90;;;;;;4157688;28;20317;-61
2022/01/10 08:52:30;;;;;;;31.30;13.40;;;0.50;99.90;;;;;;4156407;28;20271;-55
2022/01/10 08:54:32;;;;;;;27.27;13.07;;;0.50;99.90;;;;;;4157780;28;20278;-56
2022/01/10 08:56:33;;;;;;;26.57;12.80;;;0.40;99.90;;;;;;4156348;28;20770;-55
2022/01/10 08:58:34;;;;;;;29.27;13.97;;;0.40;99.90;;;;;;4157326;28;20259;-57
2022/01/10 09:00:36;;;;;;;30.67;13.10;;;0.30;99.90;;;;;;4156534;28;20287;-57
2022/01/10 09:02:37;;;;;;;27.33;12.53;;;0.30;99.90;;;;;;4157937;28;20275;-58
2022/01/10 09:04:39;;;;;;;28.57;13.47;;;0.40;99.90;;;;;;4156445;28;21045;-57
2022/01/10 09:06:40;;;;;;;29.70;13.13;;;0.30;99.90;;;;;;4157542;28;20341;-60
2022/01/10 09:08:44;;;;;;;27.80;12.77;;;0.30;99.90;;;;;;4156631;28;20271;-60
2022/01/10 09:10:45;;;;;;;33.53;14.03;;;0.30;99.90;;;;;;4157286;28;20746;-61
2022/01/10 09:12:46;;;;;;;33.33;14.23;;;0.30;99.90;;;;;;4157670;28;20290;-56
2022/01/10 09:14:47;;;;;;;33.00;13.50;;;0.30;99.90;;;;;;4157145;28;20332;-58
2022/01/10 09:16:48;;;;;;;27.73;12.57;;;0.20;99.90;;;;;;4158433;28;20266;-57
2022/01/10 09:18:50;;;;;;;28.97;13.40;;;0.20;99.90;;;;;;4155848;28;20270;-55
2022/01/10 09:20:52;;;;;;;33.50;14.53;;;0.30;99.90;;;;;;4157724;28;20367;-60
2022/01/10 09:22:53;;;;;;;30.83;13.53;;;0.20;99.90;;;;;;4156577;28;20255;-60
2022/01/10 09:24:55;;;;;;;31.37;14.13;;;0.30;99.90;;;;;;4157163;28;20274;-58
2022/01/10 09:26:56;;;;;;;34.20;14.80;;;0.30;99.90;;;;;;4155850;28;20295;-60
2022/01/10 09:28:59;;;;;;;31.00;14.80;;;0.20;99.90;;;;;;4157300;28;20336;-58
2022/01/10 09:31:01;;;;;;;34.77;15.40;;;0.30;99.90;;;;;;4156364;28;20263;-57
2022/01/10 09:33:02;;;;;;;31.20;14.37;;;0.30;99.90;;;;;;4157384;28;20267;-55
2022/01/10 09:35:04;;;;;;;30.43;15.23;;;0.30;99.90;;;;;;4156194;28;20628;-58
2022/01/10 09:37:05;;;;;;;33.97;13.57;;;0.30;99.90;;;;;;4157420;28;20274;-55
2022/01/10 09:39:06;;;;;;;35.07;15.00;;;0.30;99.90;;;;;;4156219;28;20751;-56
2022/01/10 09:41:07;;;;;;;33.50;14.17;;;0.40;99.90;;;;;;4156412;28;20263;-56
2022/01/10 09:43:08;;;;;;;28.07;13.90;;;0.30;99.90;;;;;;4156556;28;20299;-56
2022/01/10 09:45:10;;;;;;;25.87;12.30;;;0.30;99.90;;;;;;4156164;28;20353;-60
2022/01/10 09:47:11;;;;;;;28.30;13.23;;;0.40;99.90;;;;;;4155569;28;20290;-58
2022/01/10 09:49:13;;;;;;;30.63;13.20;;;0.40;99.90;;;;;;4155785;28;20320;-59
2022/01/10 09:51:14;;;;;;;26.93;12.40;;;0.40;99.90;;;;;;4156953;28;20267;-53
2022/01/10 09:53:17;;;;;;;30.47;12.50;;;0.40;99.90;;;;;;4156237;28;20271;-55
2022/01/10 09:55:18;;;;;;;26.80;11.97;;;0.40;99.90;;;;;;4156679;28;20329;-58
2022/01/10 09:57:20;;;;;;;30.80;13.77;;;0.50;99.90;;;;;;4155003;28;20297;-55
2022/01/10 09:59:22;;;;;;;29.70;12.60;;;0.50;99.90;;;;;;4157215;28;20340;-57
2022/01/10 10:01:24;;;;;;;29.10;12.27;;;0.50;99.90;;;;;;4155669;28;20987;-60
2022/01/10 10:03:27;;;;;;;27.70;12.00;;;0.50;99.90;;;;;;4155437;28;20441;-57
2022/01/10 10:05:29;;;;;;;23.00;11.63;;;0.60;99.90;;;;;;4155229;28;20333;-58
2022/01/10 10:07:31;;;;;;;30.27;12.93;;;0.70;99.90;;;;;;4156638;28;20310;-58
2022/01/10 10:09:34;;;;;;;25.97;12.33;;;0.70;99.90;;;;;;4156384;28;20267;-59
2022/01/10 10:11:47;;;;;;;26.67;11.50;;;0.70;99.90;;;;;;4159599;28;20263;-59
2022/01/10 10:13:54;;;;;;;28.67;13.23;;;0.70;99.90;;;;;;4159589;28;20999;-60
2022/01/10 10:15:58;;;;;;;32.03;12.67;;;0.70;99.90;;;;;;4159947;28;20873;-57
2022/01/10 10:17:59;;;;;;;28.40;14.20;;;0.80;99.90;;;;;;4158196;28;20312;-58
2022/01/10 10:20:15;;;;;;;24.43;12.50;;;0.90;99.90;;;;;;4159381;28;20336;-58
2022/01/10 10:22:16;;;;;;;27.47;12.83;;;0.90;99.90;;;;;;4159436;28;20274;-58
2022/01/10 10:24:18;;;;;;;29.13;12.87;;;0.90;99.90;;;;;;4159653;28;20271;-57
2022/01/10 10:26:24;;;;;;;27.57;12.67;;;0.90;99.90;;;;;;4159411;28;20298;-59
2022/01/10 10:28:25;;;;;;;32.33;14.60;;;0.90;99.90;;;;;;4159131;28;20380;-61
2022/01/10 10:30:29;;;;;;;33.10;14.60;;;0.90;99.90;;;;;;4159834;28;20267;-56
2022/01/10 10:32:30;;;;;;;26.93;13.60;;;1.00;99.90;;;;;;4158903;28;20328;-58